Time;durP1;ratioP1;P1;durP2;ratioP2;P2;SDS_P1;SDS_P2;PMS_P1;PMS_P2;Temp;Humidity;BMP_temperature;BMP_pressure;BME280_temperature;BME280_humidity;BME280_pressure;Samples;Min_cycle;Max_cycle;Signal;HPM_P1;HPM_P2
2022/10/21 00:01:44;;;;;;;9.07;3.80;;;;;;;10.04;69.26;98010.97;5069984;28;20192;-79
2022/10/21 00:04:11;;;;;;;4.63;3.57;;;;;;;10.13;68.92;98021.13;5068201;28;20700;-79
2022/10/21 00:06:40;;;;;;;4.43;3.70;;;;;;;10.23;68.68;98014.78;5069461;28;20290;-78
2022/10/21 00:09:07;;;;;;;5.63;4.07;;;;;;;10.42;68.36;98018.53;5070222;28;20208;-79
2022/10/21 00:11:34;;;;;;;5.27;3.00;;;;;;;10.45;67.79;98014.13;5051125;28;20189;-78
2022/10/21 00:14:02;;;;;;;6.90;3.37;;;;;;;10.42;67.41;97995.25;5069589;28;20197;-79
2022/10/21 00:16:28;;;;;;;5.50;3.40;;;;;;;10.48;67.04;98018.38;5067943;28;20566;-78
2022/10/21 00:18:56;;;;;;;6.83;3.57;;;;;;;10.53;67.40;98025.09;5069345;28;20209;-78
2022/10/21 00:21:24;;;;;;;6.67;3.70;;;;;;;10.53;67.44;98016.50;5066814;28;20870;-78
2022/10/21 00:23:51;;;;;;;4.40;3.57;;;;;;;10.69;66.62;98009.09;5068437;28;20186;-77
2022/10/21 00:26:19;;;;;;;6.23;3.63;;;;;;;10.68;66.72;98012.56;5068469;28;20201;-77
2022/10/21 00:28:47;;;;;;;7.50;3.87;;;;;;;10.72;66.50;98012.44;5068904;28;20208;-77
2022/10/21 00:31:15;;;;;;;5.50;3.80;;;;;;;10.68;66.81;98007.38;5072709;28;20200;-78
2022/10/21 00:33:42;;;;;;;4.60;3.70;;;;;;;10.71;66.09;98010.75;5067332;28;20221;-79
2022/10/21 00:36:14;;;;;;;8.10;4.13;;;;;;;10.54;65.86;97987.09;5070952;28;20197;-79
2022/10/21 00:38:47;;;;;;;5.77;3.97;;;;;;;10.43;66.17;97995.19;5071469;28;20187;-78
2022/10/21 00:41:16;;;;;;;6.73;3.57;;;;;;;10.36;66.54;98005.78;5069148;28;20177;-79
2022/10/21 00:44:01;;;;;;;6.53;3.60;;;;;;;10.19;66.73;98014.03;5068498;28;20664;-78
2022/10/21 00:46:29;;;;;;;5.63;4.23;;;;;;;9.84;67.62;98004.66;5067544;28;20236;-79
2022/10/21 00:48:59;;;;;;;5.43;4.17;;;;;;;9.54;68.31;98009.78;5069537;28;20189;-80
2022/10/21 00:51:26;;;;;;;8.47;4.33;;;;;;;9.28;69.47;97997.53;5067563;28;20669;-79
2022/10/21 00:53:56;;;;;;;6.37;3.80;;;;;;;9.05;70.04;97999.81;5068671;28;20185;-79
2022/10/21 00:56:27;;;;;;;5.50;4.27;;;;;;;9.09;69.79;97998.88;5067575;28;20216;-78
2022/10/21 00:58:58;;;;;;;7.60;3.83;;;;;;;8.86;70.31;97989.09;5068182;28;20200;-79
2022/10/21 01:01:25;;;;;;;6.73;3.97;;;;;;;8.84;71.06;97990.84;5067629;28;20187;-80
2022/10/21 01:03:52;;;;;;;6.13;3.77;;;;;;;8.67;70.75;97990.41;5065946;28;20189;-79
2022/10/21 01:06:23;;;;;;;3.63;3.33;;;;;;;8.35;72.63;97992.00;5068612;28;20234;-78
2022/10/21 01:08:53;;;;;;;6.23;3.60;;;;;;;8.46;73.05;97998.66;5066836;28;20264;-78
2022/10/21 01:11:23;;;;;;;6.83;3.60;;;;;;;8.47;71.77;97984.00;5068390;28;20738;-79
2022/10/21 01:14:19;;;;;;;6.80;4.30;;;;;;;8.39;71.66;97991.91;5067615;28;20189;-78
2022/10/21 01:16:56;;;;;;;5.13;3.77;;;;;;;8.49;72.48;97990.00;5045721;28;20193;-79
2022/10/21 01:19:49;;;;;;;5.23;4.20;;;;;;;8.32;72.62;97992.09;5068287;28;20204;-80
2022/10/21 01:22:39;;;;;;;7.57;4.13;;;;;;;8.07;74.15;97990.00;5066102;28;20189;-78
2022/10/21 01:25:39;;;;;;;6.50;4.67;;;;;;;7.82;74.36;97996.53;5066066;28;20193;-78
2022/10/21 01:28:15;;;;;;;5.67;3.93;;;;;;;7.73;74.38;97991.53;5069928;28;20231;-79
2022/10/21 01:30:51;;;;;;;6.90;4.87;;;;;;;7.74;74.62;97995.81;5066842;28;20189;-79
2022/10/21 01:33:31;;;;;;;5.80;4.33;;;;;;;7.79;74.64;97993.16;5068044;28;20185;-78
2022/10/21 01:36:08;;;;;;;5.37;3.67;;;;;;;7.73;74.71;97988.13;5067851;28;20195;-79
2022/10/21 01:38:43;;;;;;;8.40;4.70;;;;;;;7.62;74.06;97985.75;5065245;28;20188;-78
2022/10/21 01:41:35;;;;;;;5.33;4.10;;;;;;;7.52;75.76;97988.53;5070658;28;20195;-79
2022/10/21 01:44:09;;;;;;;7.97;4.53;;;;;;;7.64;75.55;97989.16;5065424;28;20635;-79
2022/10/21 01:46:45;;;;;;;7.70;4.87;;;;;;;7.77;73.76;97993.16;5067796;28;20193;-80
2022/10/21 01:49:37;;;;;;;7.97;4.80;;;;;;;7.78;74.84;97994.03;5069291;28;20298;-80
2022/10/21 01:52:06;;;;;;;8.07;5.03;;;;;;;7.89;74.12;97985.19;5068983;28;21143;-79
2022/10/21 01:54:44;;;;;;;9.03;5.37;;;;;;;7.73;73.99;97988.13;5072651;28;20610;-80
2022/10/21 01:57:15;;;;;;;8.23;5.33;;;;;;;7.65;74.72;97983.09;5069885;28;20188;-79
2022/10/21 01:59:44;;;;;;;8.83;5.97;;;;;;;7.56;75.36;98000.47;5075520;28;20641;-79
2022/10/21 02:02:14;;;;;;;9.27;5.83;;;;;;;7.65;75.75;97993.41;5084023;28;20199;-80
2022/10/21 02:04:43;;;;;;;8.50;5.83;;;;;;;7.60;74.95;97995.25;5081088;28;20541;-79
2022/10/21 02:07:10;;;;;;;9.27;6.13;;;;;;;7.52;75.36;97983.38;5070831;28;20623;-79
2022/10/21 02:09:37;;;;;;;9.27;5.63;;;;;;;7.75;73.51;97996.69;5066251;28;20661;-80
2022/10/21 02:12:06;;;;;;;9.07;6.13;;;;;;;7.81;74.15;98002.53;5069275;28;20185;-78
2022/10/21 02:14:42;;;;;;;10.13;5.37;;;;;;;7.66;74.33;97997.69;5068294;28;20185;-78
2022/10/21 02:17:14;;;;;;;9.20;5.93;;;;;;;7.60;75.46;98009.84;5068667;28;20199;-78
2022/10/21 02:19:42;;;;;;;9.23;6.40;;;;;;;7.69;74.67;97997.63;5069401;28;20191;-79
2022/10/21 02:22:12;;;;;;;10.90;6.00;;;;;;;7.56;75.18;98011.63;5070597;28;20204;-79
2022/10/21 02:24:53;;;;;;;10.23;6.07;;;;;;;7.62;74.72;98016.69;5067949;28;20657;-78
2022/10/21 02:27:21;;;;;;;10.07;6.23;;;;;;;7.39;75.43;97995.63;5065604;28;20228;-79
2022/10/21 02:29:53;;;;;;;7.17;5.90;;;;;;;7.39;76.51;98016.25;5068754;28;20185;-79
2022/10/21 02:32:42;;;;;;;9.23;6.13;;;;;;;7.25;76.74;98018.22;5071646;28;20192;-78
2022/10/21 02:35:19;;;;;;;8.83;5.73;;;;;;;7.22;77.06;98021.69;5066168;28;20215;-79
2022/10/21 02:38:10;;;;;;;9.57;5.93;;;;;;;7.40;76.16;98020.50;5068706;28;20185;-78
2022/10/21 02:40:49;;;;;;;8.87;6.03;;;;;;;7.50;75.88;98019.47;5080807;28;20560;-79
2022/10/21 02:43:30;;;;;;;8.67;6.33;;;;;;;7.35;76.40;98017.16;5070856;28;20182;-79
2022/10/21 02:46:04;;;;;;;9.93;6.93;;;;;;;7.19;77.32;98016.56;5088260;28;20619;-79
2022/10/21 02:48:35;;;;;;;8.90;5.67;;;;;;;7.14;77.47;98027.84;5089671;28;20223;-78
2022/10/21 02:51:05;;;;;;;12.20;6.03;;;;;;;7.06;77.01;98019.38;5091304;28;20197;-77
2022/10/21 02:53:33;;;;;;;9.80;6.53;;;;;;;6.94;78.07;98024.72;5080127;28;20249;-78
2022/10/21 02:56:00;;;;;;;8.00;5.20;;;;;;;6.81;79.17;98026.66;5087124;28;20189;-78
2022/10/21 02:58:29;;;;;;;8.20;5.03;;;;;;;6.84;80.25;98033.47;5090772;28;20552;-78
2022/10/21 03:00:56;;;;;;;7.97;5.23;;;;;;;6.84;79.78;98018.03;5085521;28;20279;-78
2022/10/21 03:03:23;;;;;;;11.03;5.50;;;;;;;6.89;80.43;98036.81;5050955;28;20196;-79
2022/10/21 03:05:50;;;;;;;6.57;4.83;;;;;;;6.98;80.50;98034.97;5047786;28;20211;-79
2022/10/21 03:08:17;;;;;;;7.53;5.53;;;;;;;7.03;79.12;98032.28;5050757;28;20233;-78
2022/10/21 03:10:48;;;;;;;7.63;5.27;;;;;;;7.08;78.89;98038.22;5052926;28;20218;-80
2022/10/21 03:13:20;;;;;;;6.87;4.90;;;;;;;7.06;80.29;98037.41;5053003;28;20234;-79
2022/10/21 03:15:48;;;;;;;8.70;5.50;;;;;;;7.00;78.84;98038.38;5050086;28;20190;-79
2022/10/21 03:18:15;;;;;;;9.90;5.30;;;;;;;6.90;79.26;98039.38;5049910;28;20248;-78
2022/10/21 03:20:43;;;;;;;7.27;4.80;;;;;;;6.95;79.27;98035.00;5050654;28;20206;-79
2022/10/21 03:23:10;;;;;;;8.10;5.40;;;;;;;6.85;79.63;98043.75;5048134;28;20194;-79
2022/10/21 03:25:36;;;;;;;7.83;5.03;;;;;;;6.99;78.53;98030.66;5052399;28;20193;-80
2022/10/21 03:28:05;;;;;;;8.23;5.13;;;;;;;7.03;79.11;98037.44;5048029;28;20236;-80
2022/10/21 03:30:33;;;;;;;9.43;5.10;;;;;;;7.15;78.79;98035.53;5050649;28;20284;-79
2022/10/21 03:33:00;;;;;;;14.53;6.03;;;;;;;7.50;77.23;98057.28;5049239;28;20193;-79
2022/10/21 03:35:28;;;;;;;15.30;6.43;;;;;;;7.71;75.54;98051.72;5051232;28;20218;-79
2022/10/21 03:37:55;;;;;;;9.10;5.83;;;;;;;7.70;74.52;98037.16;5061586;28;20186;-80
2022/10/21 03:40:29;;;;;;;9.97;5.80;;;;;;;7.91;74.68;98052.22;5051776;28;20196;-79
2022/10/21 03:42:59;;;;;;;13.07;6.53;;;;;;;7.84;74.02;98051.50;5050127;28;20757;-78
2022/10/21 03:45:29;;;;;;;9.73;6.17;;;;;;;7.88;74.43;98045.41;5049391;28;20186;-80
2022/10/21 03:47:56;;;;;;;13.20;6.40;;;;;;;7.95;74.30;98052.16;5051133;28;20214;-80
2022/10/21 03:50:23;;;;;;;8.30;5.17;;;;;;;7.91;73.76;98050.47;5049388;28;20744;-79
2022/10/21 03:52:53;;;;;;;9.73;5.30;;;;;;;7.87;72.73;98054.00;5048950;28;20642;-79
2022/10/21 03:55:23;;;;;;;9.33;5.77;;;;;;;7.58;74.04;98056.28;5049826;28;20668;-79
2022/10/21 03:57:51;;;;;;;10.50;5.10;;;;;;;7.39;75.00;98054.88;5047754;28;20663;-79
2022/10/21 04:00:18;;;;;;;9.93;6.20;;;;;;;7.23;75.21;98043.97;5052289;28;20611;-79
2022/10/21 04:02:47;;;;;;;8.87;4.97;;;;;;;7.26;74.83;98045.66;5049245;28;20190;-79
2022/10/21 04:05:20;;;;;;;7.07;5.20;;;;;;;6.99;75.68;98043.50;5049614;28;20193;-79
2022/10/21 04:07:47;;;;;;;14.27;5.90;;;;;;;6.83;75.35;98048.06;5049364;28;20217;-80
2022/10/21 04:10:19;;;;;;;7.70;5.00;;;;;;;6.73;77.13;98053.38;5066131;28;20227;-79
2022/10/21 04:12:47;;;;;;;5.93;4.90;;;;;;;6.61;76.80;98056.13;5089626;28;20190;-79
2022/10/21 04:15:14;;;;;;;13.07;6.33;;;;;;;6.58;77.05;98057.00;5079316;28;20191;-80
2022/10/21 04:17:44;;;;;;;6.70;4.97;;;;;;;6.55;78.08;98046.78;5091604;28;20182;-78
2022/10/21 04:20:12;;;;;;;7.03;4.90;;;;;;;6.53;77.42;98054.47;5086966;28;20185;-78
2022/10/21 04:22:39;;;;;;;8.63;5.27;;;;;;;6.39;77.96;98050.41;5092746;28;20695;-79
2022/10/21 04:25:06;;;;;;;9.37;5.17;;;;;;;6.19;78.32;98042.94;5088918;28;20240;-81
2022/10/21 04:27:33;;;;;;;11.60;5.63;;;;;;;6.12;78.09;98037.91;5088198;28;20214;-80
2022/10/21 04:30:03;;;;;;;9.60;5.23;;;;;;;6.14;79.49;98055.00;5088203;28;20276;-80
2022/10/21 04:32:30;;;;;;;10.13;4.90;;;;;;;6.26;78.73;98048.88;5087221;28;20219;-80
2022/10/21 04:34:57;;;;;;;8.33;5.47;;;;;;;6.33;77.78;98048.75;5089107;28;20242;-79
2022/10/21 04:37:24;;;;;;;11.17;5.20;;;;;;;6.14;78.96;98049.84;5087625;28;20181;-79
2022/10/21 04:39:51;;;;;;;9.70;5.77;;;;;;;6.35;78.89;98053.88;5089555;28;20190;-80
2022/10/21 04:42:18;;;;;;;15.03;6.40;;;;;;;6.56;77.99;98027.88;5088941;28;20681;-80
2022/10/21 04:44:45;;;;;;;12.30;7.40;;;;;;;6.88;76.45;98045.44;5088984;28;20183;-81
2022/10/21 04:47:13;;;;;;;12.07;6.60;;;;;;;7.07;75.34;98041.66;5089099;28;20288;-80
2022/10/21 04:49:42;;;;;;;18.17;10.20;;;;;;;7.02;75.02;98030.59;5086258;28;20237;-80
2022/10/21 04:52:10;;;;;;;10.90;6.17;;;;;;;7.14;74.22;98048.44;5088131;28;20265;-80
2022/10/21 04:54:37;;;;;;;10.87;5.13;;;;;;;7.15;75.01;98052.72;5087412;28;20199;-81
2022/10/21 04:57:05;;;;;;;16.40;5.30;;;;;;;6.89;75.13;98009.34;5087241;28;20202;-79
2022/10/21 04:59:32;;;;;;;7.53;4.53;;;;;;;7.00;74.84;98046.09;5070138;28;20210;-80
2022/10/21 05:01:59;;;;;;;7.73;5.00;;;;;;;6.62;76.88;98052.66;5088438;28;20182;-79
2022/10/21 05:04:27;;;;;;;8.67;5.37;;;;;;;6.31;77.66;98047.06;5088577;28;20291;-79
2022/10/21 05:07:00;;;;;;;8.10;5.93;;;;;;;6.23;78.34;98046.31;5085712;28;20186;-82
2022/10/21 05:09:28;;;;;;;9.77;5.87;;;;;;;6.13;78.92;98045.59;5086848;28;20592;-78
2022/10/21 05:11:55;;;;;;;8.20;4.93;;;;;;;6.16;79.30;98062.72;5068707;28;20742;-80
2022/10/21 05:14:22;;;;;;;9.60;5.40;;;;;;;6.23;79.69;98056.59;5088396;28;20200;-80
2022/10/21 05:16:49;;;;;;;9.07;5.33;;;;;;;6.43;78.30;98060.63;5087514;28;20282;-80
2022/10/21 05:19:17;;;;;;;13.33;6.47;;;;;;;6.63;77.41;98059.53;5088148;28;20196;-80
2022/10/21 05:21:45;;;;;;;8.60;4.77;;;;;;;6.73;76.37;98066.22;5072144;28;20200;-80
2022/10/21 05:24:14;;;;;;;9.47;5.50;;;;;;;6.36;77.01;98046.16;5087156;28;20188;-79
2022/10/21 05:26:41;;;;;;;7.33;4.87;;;;;;;6.50;76.62;98062.25;5070394;28;20193;-80
2022/10/21 05:29:11;;;;;;;10.43;5.57;;;;;;;6.50;75.68;98057.13;5086593;28;20221;-79
2022/10/21 05:31:38;;;;;;;9.53;5.97;;;;;;;6.68;76.39;98079.16;5088326;28;20654;-80
2022/10/21 05:34:10;;;;;;;9.10;6.37;;;;;;;6.63;75.93;98080.09;5087354;28;20619;-80
2022/10/21 05:36:37;;;;;;;11.20;6.83;;;;;;;6.61;75.90;98084.44;5087941;28;20190;-81
2022/10/21 05:39:10;;;;;;;10.93;6.23;;;;;;;6.62;76.53;98083.53;5070573;28;20192;-81
2022/10/21 05:41:38;;;;;;;11.93;6.23;;;;;;;6.66;76.67;98085.22;5086697;28;20250;-78
2022/10/21 05:44:12;;;;;;;11.00;6.20;;;;;;;6.76;76.36;98097.91;5062007;28;20190;-79
2022/10/21 05:46:39;;;;;;;8.37;6.53;;;;;;;6.95;75.25;98094.22;5064621;28;20590;-81
2022/10/21 05:49:07;;;;;;;10.87;6.00;;;;;;;7.01;75.05;98099.28;5067844;28;20225;-81
2022/10/21 05:51:34;;;;;;;13.83;6.20;;;;;;;7.01;75.38;98098.41;5066589;28;20280;-80
2022/10/21 05:54:04;;;;;;;9.63;6.30;;;;;;;6.99;74.93;98102.75;5067186;28;20691;-81
2022/10/21 05:56:31;;;;;;;9.50;6.67;;;;;;;7.16;75.02;98100.78;5067799;28;20370;-81
2022/10/21 05:58:59;;;;;;;8.87;6.03;;;;;;;7.27;75.26;98097.16;5074785;28;20698;-79
2022/10/21 06:01:26;;;;;;;9.03;6.07;;;;;;;7.27;74.37;98099.72;5073349;28;20196;-76
2022/10/21 06:03:53;;;;;;;11.57;5.87;;;;;;;7.27;74.50;98084.25;5011728;28;20219;-76
2022/10/21 06:06:20;;;;;;;8.77;5.73;;;;;;;7.40;74.86;98098.66;5048033;28;20182;-78
2022/10/21 06:08:49;;;;;;;9.60;6.07;;;;;;;7.51;75.45;98106.22;5045604;28;20218;-80
2022/10/21 06:11:18;;;;;;;9.70;6.50;;;;;;;7.58;75.12;98105.25;5048138;28;20186;-79
2022/10/21 06:13:46;;;;;;;12.00;8.20;;;;;;;7.67;74.61;98101.63;5030287;28;20241;-80
2022/10/21 06:16:14;;;;;;;11.23;7.93;;;;;;;7.42;74.65;98059.97;5045961;28;20699;-79
2022/10/21 06:18:42;;;;;;;13.13;7.93;;;;;;;7.73;74.53;98107.53;5050985;28;20647;-79
2022/10/21 06:21:12;;;;;;;11.87;7.97;;;;;;;8.01;74.14;98113.94;5031088;28;20624;-81
2022/10/21 06:23:40;;;;;;;21.53;8.83;;;;;;;8.20;73.66;98098.94;5050740;28;20284;-78
2022/10/21 06:26:13;;;;;;;17.30;9.10;;;;;;;8.56;72.79;98102.53;5050906;28;20232;-82
2022/10/21 06:28:42;;;;;;;13.63;8.20;;;;;;;8.84;70.97;98090.75;5053812;28;20219;-83
2022/10/21 06:31:14;;;;;;;15.37;7.87;;;;;;;8.99;70.83;98113.66;5051742;28;20247;-79
2022/10/21 06:33:44;;;;;;;11.63;8.07;;;;;;;9.16;71.12;98115.84;5048482;28;20253;-77
2022/10/21 06:36:11;;;;;;;13.60;7.77;;;;;;;9.34;70.77;98111.09;5051711;28;20201;-80
2022/10/21 06:38:40;;;;;;;13.93;6.70;;;;;;;9.43;70.11;98115.22;5050879;28;20214;-80
2022/10/21 06:41:13;;;;;;;7.77;5.77;;;;;;;9.69;70.05;98111.09;5034568;28;20258;-81
2022/10/21 06:43:41;;;;;;;11.33;7.03;;;;;;;10.03;68.73;98099.88;5032718;28;20294;-80
2022/10/21 06:46:11;;;;;;;9.30;5.03;;;;;;;10.24;67.83;98117.47;5057302;28;20667;-79
2022/10/21 06:48:39;;;;;;;9.17;6.03;;;;;;;10.16;67.79;98103.88;5070252;28;20232;-81
2022/10/21 06:51:15;;;;;;;6.83;5.30;;;;;;;10.43;67.58;98111.72;5080538;28;20189;-81
2022/10/21 06:53:43;;;;;;;9.60;5.47;;;;;;;10.61;66.75;98120.72;5070665;28;20212;-81
2022/10/21 06:56:17;;;;;;;8.77;5.87;;;;;;;10.48;66.92;98096.06;5068713;28;20248;-80
2022/10/21 06:58:48;;;;;;;7.60;5.20;;;;;;;10.69;66.95;98121.34;5070274;28;20676;-81
2022/10/21 07:01:20;;;;;;;6.67;5.23;;;;;;;10.67;66.63;98106.72;5070412;28;20284;-79
2022/10/21 07:04:08;;;;;;;11.10;5.73;;;;;;;10.94;66.15;98124.88;5069407;28;20213;-80
2022/10/21 07:06:36;;;;;;;6.73;4.90;;;;;;;11.03;65.64;98105.63;5070885;28;20189;-79
2022/10/21 07:09:06;;;;;;;11.47;5.40;;;;;;;11.12;65.61;98116.59;5070043;28;20753;-81
2022/10/21 07:11:34;;;;;;;9.47;5.40;;;;;;;11.32;65.21;98119.41;5071289;28;20186;-81
2022/10/21 07:14:01;;;;;;;9.60;6.33;;;;;;;11.59;64.39;98117.66;5070252;28;20230;-82
2022/10/21 07:16:31;;;;;;;7.60;4.47;;;;;;;11.65;63.32;98096.72;5074440;28;20192;-81
2022/10/21 07:19:00;;;;;;;13.13;4.87;;;;;;;11.97;63.49;98113.84;5070070;28;20200;-81
2022/10/21 07:21:32;;;;;;;12.10;6.80;;;;;;;12.40;62.01;98108.84;5069820;28;20182;-80
2022/10/21 07:24:00;;;;;;;14.83;6.37;;;;;;;12.43;62.17;98103.50;5069228;28;20203;-79
2022/10/21 07:26:31;;;;;;;16.43;4.60;;;;;;;12.61;61.81;98092.44;5068573;28;20224;-80
2022/10/21 07:28:59;;;;;;;14.90;4.60;;;;;;;12.71;60.91;98101.63;5076776;28;20232;-82
2022/10/21 07:31:32;;;;;;;13.43;5.50;;;;;;;12.61;61.32;98086.44;5059346;28;20212;-80
2022/10/21 07:34:00;;;;;;;26.83;12.70;;;;;;;12.61;61.20;98092.44;5069472;28;20228;-79
2022/10/21 07:36:37;;;;;;;24.60;12.33;;;;;;;12.58;61.15;98086.53;5068917;28;20704;-81
2022/10/21 07:39:09;;;;;;;20.50;9.30;;;;;;;12.71;61.40;98108.56;5068446;28;20198;-82
2022/10/21 07:41:45;;;;;;;15.63;7.90;;;;;;;12.93;60.67;98097.31;5069809;28;20700;-79
2022/10/21 07:44:18;;;;;;;10.20;6.80;;;;;;;13.11;60.09;98089.75;5068065;28;20228;-79
2022/10/21 07:46:47;;;;;;;12.07;7.40;;;;;;;13.06;60.54;98082.94;5069814;28;20188;-81
2022/10/21 07:49:18;;;;;;;6.70;4.87;;;;;;;13.16;60.60;98090.38;5069342;28;20318;-80
2022/10/21 07:51:46;;;;;;;9.53;4.00;;;;;;;13.25;59.17;98093.47;5048745;28;20211;-80
2022/10/21 07:54:14;;;;;;;14.60;4.90;;;;;;;13.42;59.52;98103.19;5064524;28;20246;-80
2022/10/21 07:57:34;;;;;;;10.80;4.53;;;;;;;13.42;59.60;98098.84;5085437;28;20265;-80
2022/10/21 08:00:58;;;;;;;9.87;5.63;;;;;;;13.69;58.44;98100.34;5086598;28;20535;-80
2022/10/21 08:04:19;;;;;;;5.70;3.13;;;;;;;13.67;57.61;98098.69;5087505;28;20527;-81
2022/10/21 08:07:45;;;;;;;8.30;3.40;;;;;;;13.71;57.67;98093.31;5088737;28;20630;-81
2022/10/21 08:11:07;;;;;;;6.43;2.90;;;;;;;13.73;56.37;98088.03;5072871;28;20701;-79
2022/10/21 08:14:32;;;;;;;4.03;2.17;;;;;;;13.63;55.43;98055.50;5087781;28;20265;-81
2022/10/21 08:17:56;;;;;;;9.87;2.20;;;;;;;13.80;55.97;98086.88;5078453;28;20208;-79
2022/10/21 08:21:17;;;;;;;4.73;2.70;;;;;;;13.94;55.63;98087.16;5088825;28;20195;-80
2022/10/21 08:24:38;;;;;;;3.93;2.57;;;;;;;13.56;56.20;98086.13;5086286;28;20191;-80
2022/10/21 08:27:59;;;;;;;3.03;2.27;;;;;;;13.61;55.85;98080.72;5086986;28;20488;-81
2022/10/21 08:31:23;;;;;;;6.30;3.40;;;;;;;13.95;54.97;98075.78;5087728;28;20177;-81
2022/10/21 08:38:41;;;;;;;10.17;3.70;;;;;;;14.43;53.68;98071.09;5071148;28;20688;-79
2022/10/21 08:41:23;;;;;;;6.17;2.83;;;;;;;14.60;53.60;98078.16;5081292;28;20676;-77
2022/10/21 08:43:53;;;;;;;5.43;3.57;;;;;;;14.61;53.70;98072.06;5063728;28;20192;-76
2022/10/21 08:46:25;;;;;;;7.63;3.47;;;;;;;14.61;53.87;98075.47;5067289;28;20188;-74
2022/10/21 08:49:24;;;;;;;9.33;3.47;;;;;;;14.85;52.57;98083.09;5065833;28;20220;-75
2022/10/21 08:52:04;;;;;;;10.47;4.07;;;;;;;14.62;53.13;98082.41;5062835;28;20193;-77
2022/10/21 08:55:01;;;;;;;10.73;5.27;;;;;;;14.45;53.41;98081.44;5067114;28;20403;-78
2022/10/21 08:57:33;;;;;;;8.20;3.33;;;;;;;14.25;54.01;98069.28;5064271;28;20188;-79
2022/10/21 09:00:12;;;;;;;7.70;4.87;;;;;;;14.48;54.01;98068.28;5067013;28;20185;-76
2022/10/21 09:02:47;;;;;;;5.40;3.43;;;;;;;14.68;53.74;98081.28;5064984;28;20201;-76
2022/10/21 09:05:34;;;;;;;10.67;3.57;;;;;;;14.72;52.74;98063.72;5065603;28;20239;-77
2022/10/21 09:08:24;;;;;;;6.73;3.30;;;;;;;14.81;52.94;98078.94;5066573;28;20228;-81
2022/10/21 09:11:25;;;;;;;4.57;3.10;;;;;;;14.85;52.73;98065.72;5066670;28;20196;-79
2022/10/21 09:13:55;;;;;;;5.17;3.33;;;;;;;14.82;53.25;98075.44;5068016;28;20204;-80
2022/10/21 09:16:49;;;;;;;6.43;4.47;;;;;;;14.75;53.55;98047.94;5050401;28;20262;-83
2022/10/21 09:19:36;;;;;;;7.43;3.53;;;;;;;15.04;52.90;98061.34;5065055;28;20192;-80
2022/10/21 09:22:22;;;;;;;8.93;4.57;;;;;;;15.09;52.85;98063.69;5068327;28;20639;-82
2022/10/21 09:25:24;;;;;;;9.00;3.73;;;;;;;15.23;52.05;98061.28;5067742;28;20195;-81
2022/10/21 09:27:54;;;;;;;9.93;4.77;;;;;;;15.41;51.98;98052.56;5066538;28;20201;-81
2022/10/21 09:30:25;;;;;;;7.17;4.10;;;;;;;15.44;51.88;98057.66;5067310;28;20233;-81
2022/10/21 09:33:29;;;;;;;6.57;4.30;;;;;;;15.22;51.64;98043.94;5066354;28;20201;-79
2022/10/21 09:36:05;;;;;;;10.40;4.27;;;;;;;14.92;52.91;98048.03;5066439;28;20606;-82
2022/10/21 09:38:45;;;;;;;8.70;4.37;;;;;;;14.97;52.79;98046.88;5067167;28;20193;-84
2022/10/21 09:41:18;;;;;;;5.63;4.90;;;;;;;15.28;52.58;98036.66;5066391;28;20291;-80
2022/10/21 09:43:48;;;;;;;8.17;5.13;;;;;;;15.50;52.11;98043.50;5066907;28;20242;-80
2022/10/21 09:46:18;;;;;;;6.77;5.10;;;;;;;15.56;52.26;98045.78;5064371;28;20258;-79
2022/10/21 09:48:50;;;;;;;10.50;5.60;;;;;;;15.72;51.74;98038.88;5048191;28;20690;-81
2022/10/21 09:51:45;;;;;;;7.73;4.90;;;;;;;15.92;51.50;98033.47;5067089;28;20274;-82
2022/10/21 09:54:20;;;;;;;13.47;7.23;;;;;;;16.04;50.45;98038.94;5066506;28;20663;-81
2022/10/21 09:56:55;;;;;;;8.23;4.60;;;;;;;15.92;50.32;98010.81;5065498;28;20288;-79
2022/10/21 09:59:24;;;;;;;7.70;4.87;;;;;;;15.93;50.60;98020.34;5065793;28;20203;-79
2022/10/21 10:02:06;;;;;;;5.33;4.23;;;;;;;15.87;50.53;98038.09;5066107;28;20194;-80
2022/10/21 10:04:34;;;;;;;7.73;4.73;;;;;;;15.74;50.44;98009.16;5072146;28;20210;-82
2022/10/21 10:07:31;;;;;;;7.17;4.27;;;;;;;15.90;50.41;98024.88;5080797;28;20197;-79
2022/10/21 10:10:00;;;;;;;7.07;4.80;;;;;;;15.66;50.63;98006.06;5068825;28;20229;-79
2022/10/21 10:12:29;;;;;;;9.67;4.77;;;;;;;15.77;50.92;98019.44;5064560;28;20213;-81
2022/10/21 10:15:23;;;;;;;9.63;6.00;;;;;;;16.02;50.45;98008.56;5078395;28;20224;-80
2022/10/21 10:17:56;;;;;;;10.43;6.97;;;;;;;15.98;50.17;97994.81;5085883;28;20197;-81
2022/10/21 10:20:23;;;;;;;8.43;5.33;;;;;;;15.90;50.37;97991.78;5086778;28;20767;-79
2022/10/21 10:22:57;;;;;;;7.63;6.17;;;;;;;16.14;49.82;98003.56;5078478;28;20225;-80
2022/10/21 10:25:30;;;;;;;15.40;7.40;;;;;;;16.25;49.56;97995.16;5074446;28;20194;-80
2022/10/21 10:27:59;;;;;;;6.20;4.87;;;;;;;16.29;49.25;97992.28;5088196;28;20186;-82
2022/10/21 10:30:58;;;;;;;10.13;5.73;;;;;;;16.56;48.32;97983.91;5088291;28;20220;-81
2022/10/21 10:33:36;;;;;;;5.80;4.37;;;;;;;16.35;48.60;97964.13;5071092;28;20275;-81
2022/10/21 10:36:37;;;;;;;6.60;4.87;;;;;;;16.54;48.52;97965.69;5088240;28;20184;-82
2022/10/21 10:39:22;;;;;;;6.23;4.70;;;;;;;16.50;48.62;97974.63;5086926;28;20299;-80
2022/10/21 10:41:51;;;;;;;4.80;4.30;;;;;;;16.53;48.45;97963.16;5086258;28;20216;-81
2022/10/21 10:44:40;;;;;;;7.40;5.10;;;;;;;16.38;49.12;97962.22;5089350;28;20196;-80
2022/10/21 10:47:19;;;;;;;8.20;5.03;;;;;;;16.58;48.17;97950.69;5067965;28;20596;-81
2022/10/21 10:49:49;;;;;;;10.87;5.47;;;;;;;16.53;48.81;97952.69;5086337;28;20216;-81
2022/10/21 10:52:24;;;;;;;16.23;5.50;;;;;;;16.77;47.84;97956.59;5086435;28;20208;-80
2022/10/21 10:55:10;;;;;;;8.23;4.43;;;;;;;16.37;48.11;97951.81;5085698;28;20196;-80
2022/10/21 10:57:41;;;;;;;5.73;4.40;;;;;;;16.34;48.33;97952.00;5087016;28;20191;-81
2022/10/21 11:00:26;;;;;;;8.67;4.60;;;;;;;16.54;47.98;97938.69;5083661;28;20242;-81
2022/10/21 11:02:56;;;;;;;7.23;4.90;;;;;;;16.27;48.80;97944.47;5086808;28;20186;-80
2022/10/21 11:05:45;;;;;;;6.50;4.83;;;;;;;16.64;47.70;97939.88;5086977;28;20313;-80
2022/10/21 11:09:00;;;;;;;5.73;4.87;;;;;;;16.65;47.26;97942.41;5089122;28;20194;-80
2022/10/21 11:11:39;;;;;;;6.33;4.37;;;;;;;16.65;47.29;97937.16;5055668;28;20238;-79
2022/10/21 11:14:13;;;;;;;6.10;4.93;;;;;;;16.60;47.48;97933.13;5089911;28;20189;-81
2022/10/21 11:16:48;;;;;;;7.17;5.13;;;;;;;16.74;47.24;97933.19;5087060;28;20714;-80
2022/10/21 11:19:39;;;;;;;5.83;4.80;;;;;;;16.66;47.72;97919.69;5089124;28;20227;-81
2022/10/21 11:22:48;;;;;;;7.97;4.77;;;;;;;16.76;47.45;97910.41;5089471;28;20638;-80
2022/10/21 11:25:22;;;;;;;7.73;5.17;;;;;;;16.84;47.18;97923.91;5086823;28;20605;-79
2022/10/21 11:28:01;;;;;;;9.67;5.30;;;;;;;16.74;47.80;97917.50;5070809;28;20296;-80
2022/10/21 11:31:04;;;;;;;7.90;5.13;;;;;;;16.88;47.21;97922.78;5087496;28;20293;-80
2022/10/21 11:34:01;;;;;;;8.83;5.43;;;;;;;16.63;47.46;97907.63;5087430;28;20196;-80
2022/10/21 11:36:44;;;;;;;6.13;5.10;;;;;;;16.68;47.39;97910.00;5089479;28;20193;-81
2022/10/21 11:39:44;;;;;;;8.37;5.00;;;;;;;16.53;47.86;97903.84;5087467;28;20188;-81
2022/10/21 11:42:50;;;;;;;8.20;4.80;;;;;;;16.66;47.36;97910.09;5090175;28;20191;-83
2022/10/21 11:45:48;;;;;;;7.90;5.00;;;;;;;16.66;47.43;97893.56;5089891;28;20672;-80
2022/10/21 11:48:22;;;;;;;7.53;5.37;;;;;;;16.73;47.45;97897.53;5088328;28;20548;-79
2022/10/21 11:51:03;;;;;;;10.30;5.30;;;;;;;16.82;47.42;97884.75;5070880;28;20327;-81
2022/10/21 11:53:50;;;;;;;8.10;4.90;;;;;;;17.00;46.99;97888.09;5088788;28;20190;-79
2022/10/21 11:56:42;;;;;;;7.77;5.00;;;;;;;17.10;46.57;97886.63;5088127;28;20185;-80
2022/10/21 11:59:20;;;;;;;6.47;4.77;;;;;;;17.31;46.47;97890.59;5088078;28;20213;-79
2022/10/21 12:02:13;;;;;;;9.33;5.43;;;;;;;17.37;45.90;97873.69;5070806;28;20222;-80
2022/10/21 12:04:55;;;;;;;8.63;6.20;;;;;;;17.42;45.86;97880.31;5092844;28;20612;-80
2022/10/21 12:07:42;;;;;;;6.70;5.27;;;;;;;17.57;45.03;97868.97;5089045;28;20345;-79
2022/10/21 12:10:44;;;;;;;5.97;5.20;;;;;;;17.62;45.03;97876.56;5088101;28;20217;-79
2022/10/21 12:13:29;;;;;;;8.27;4.73;;;;;;;17.48;44.53;97866.00;5088652;28;20371;-80
2022/10/21 12:16:01;;;;;;;10.37;5.67;;;;;;;17.33;45.39;97865.16;5089393;28;20197;-80
2022/10/21 12:18:29;;;;;;;8.87;6.10;;;;;;;16.88;46.03;97841.69;5087009;28;20644;-80
2022/10/21 12:21:00;;;;;;;7.37;5.10;;;;;;;16.82;46.29;97855.97;5090359;28;20250;-79